Time;durP1;ratioP1;P1;durP2;ratioP2;P2;SDS_P1;SDS_P2;PMS_P1;PMS_P2;Temp;Humidity;BMP_temperature;BMP_pressure;BME280_temperature;BME280_humidity;BME280_pressure;Samples;Min_cycle;Max_cycle;Signal;HPM_P1;HPM_P2
2022/07/10 00:01:57;;;;;;;;;;;;;;;22.17;53.06;101535.88;4920495;29;4235;-66
2022/07/10 00:04:23;;;;;;;;;;;;;;;22.17;53.20;101548.19;4917003;29;4337;-66
2022/07/10 00:06:50;;;;;;;;;;;;;;;22.16;53.01;101546.69;4920641;29;4122;-66
2022/07/10 00:09:16;;;;;;;;;;;;;;;22.17;53.08;101544.53;4918547;29;4265;-66
2022/07/10 00:11:42;;;;;;;;;;;;;;;22.16;53.16;101546.69;4921347;29;4271;-66
2022/07/10 00:14:09;;;;;;;;;;;;;;;22.17;52.85;101542.44;4917160;29;5339;-66
2022/07/10 00:16:36;;;;;;;;;;;;;;;22.17;53.02;101542.44;4920907;29;4540;-66
2022/07/10 00:19:02;;;;;;;;;;;;;;;22.17;52.87;101542.44;4920337;29;4156;-67
2022/07/10 00:21:29;;;;;;;;;;;;;;;22.16;52.89;101552.44;4921703;29;5754;-66
2022/07/10 00:23:55;;;;;;;;;;;;;;;22.16;52.95;101549.56;4913628;29;4354;-66
2022/07/10 00:26:21;;;;;;;;;;;;;;;22.15;53.00;101544.44;4921256;29;5574;-66
2022/07/10 00:28:48;;;;;;;;;;;;;;;22.17;52.83;101541.66;4916719;29;4323;-66
2022/07/10 00:31:14;;;;;;;;;;;;;;;22.15;53.05;101541.56;4918967;29;4248;-66
2022/07/10 00:33:41;;;;;;;;;;;;;;;22.15;53.03;101533.66;4918890;29;4574;-66
2022/07/10 00:36:07;;;;;;;;;;;;;;;22.14;52.95;101537.94;4912920;29;4272;-66
2022/07/10 00:38:34;;;;;;;;;;;;;;;22.14;52.90;101537.94;4919169;29;4116;-66
2022/07/10 00:41:00;;;;;;;;;;;;;;;22.14;52.78;101543.69;4920061;29;5466;-66
2022/07/10 00:43:27;;;;;;;;;;;;;;;22.14;52.90;101540.06;4918164;29;4236;-66
2022/07/10 00:45:53;;;;;;;;;;;;;;;22.14;52.93;101540.81;4919953;29;4214;-66
2022/07/10 00:48:20;;;;;;;;;;;;;;;22.17;52.63;101536.66;4918964;29;4115;-66
2022/07/10 00:50:46;;;;;;;;;;;;;;;22.14;52.79;101537.94;4919699;29;6428;-66
2022/07/10 00:53:12;;;;;;;;;;;;;;;22.13;52.68;101529.94;4902936;29;5369;-66
2022/07/10 00:55:39;;;;;;;;;;;;;;;22.12;52.83;101528.44;4920423;29;4215;-61
2022/07/10 00:58:08;;;;;;;;;;;;;;;22.12;52.82;101520.53;4916491;29;4187;-66
2022/07/10 01:00:37;;;;;;;;;;;;;;;22.11;52.73;101521.91;4918675;29;5581;-66
2022/07/10 01:03:03;;;;;;;;;;;;;;;22.12;52.67;101517.63;4915585;29;4424;-66
2022/07/10 01:05:30;;;;;;;;;;;;;;;22.11;52.69;101527.69;4916010;29;5495;-66
2022/07/10 01:07:56;;;;;;;;;;;;;;;22.11;52.72;101516.16;4914658;29;4148;-66
2022/07/10 01:10:22;;;;;;;;;;;;;;;22.11;52.67;101521.91;4917273;29;4277;-66
2022/07/10 01:12:49;;;;;;;;;;;;;;;22.10;52.91;101511.03;4916986;29;4218;-66
2022/07/10 01:15:15;;;;;;;;;;;;;;;22.10;52.63;101513.91;4916084;29;4807;-66
2022/07/10 01:17:42;;;;;;;;;;;;;;;22.09;52.83;101507.41;4914117;29;4680;-66
2022/07/10 01:20:08;;;;;;;;;;;;;;;22.09;52.74;101513.16;4918457;29;4288;-66
2022/07/10 01:22:38;;;;;;;;;;;;;;;22.10;52.77;101508.88;4916674;29;4503;-66
2022/07/10 01:25:05;;;;;;;;;;;;;;;22.10;52.80;101505.25;4918631;29;5552;-66
2022/07/10 01:27:32;;;;;;;;;;;;;;;22.09;52.81;101507.41;4915542;29;5376;-66
2022/07/10 01:29:58;;;;;;;;;;;;;;;22.09;52.92;101510.28;4913450;29;5352;-66
2022/07/10 01:32:24;;;;;;;;;;;;;;;22.08;52.49;101505.91;4917148;29;5346;-66
2022/07/10 01:34:51;;;;;;;;;;;;;;;22.08;52.87;101505.91;4915882;29;4278;-66
2022/07/10 01:37:17;;;;;;;;;;;;;;;22.09;52.90;101504.50;4919579;29;4180;-66
2022/07/10 01:39:44;;;;;;;;;;;;;;;22.09;52.69;101495.84;4913770;29;6462;-66
2022/07/10 01:42:10;;;;;;;;;;;;;;;22.08;52.53;101494.38;4914689;29;4313;-66
2022/07/10 01:44:36;;;;;;;;;;;;;;;22.07;52.48;101495.00;4913770;29;4264;-66
2022/07/10 01:47:03;;;;;;;;;;;;;;;22.06;52.57;101485.63;4916633;29;4542;-66
2022/07/10 01:49:29;;;;;;;;;;;;;;;22.07;52.59;101481.34;4917790;29;5459;-66
2022/07/10 01:51:56;;;;;;;;;;;;;;;22.07;52.42;101484.22;4917697;29;5283;-67
2022/07/10 01:54:22;;;;;;;;;;;;;;;22.07;52.64;101487.09;4917633;29;5437;-66
2022/07/10 01:56:48;;;;;;;;;;;;;;;22.06;52.62;101479.84;4915967;29;4291;-66
2022/07/10 01:59:17;;;;;;;;;;;;;;;22.08;52.68;101493.63;4918663;29;5352;-66
2022/07/10 02:01:44;;;;;;;;;;;;;;;22.07;52.50;101486.38;4916735;29;4492;-65
2022/07/10 02:06:56;;;;;;;;;;;;;;;22.06;52.49;101488.50;4914777;29;4099;-67
2022/07/10 02:09:22;;;;;;;;;;;;;;;22.04;52.72;101487.66;4915403;29;4096;-67
2022/07/10 02:11:48;;;;;;;;;;;;;;;22.04;52.71;101485.53;4916760;29;4329;-66
2022/07/10 02:14:15;;;;;;;;;;;;;;;22.06;52.52;101484.84;4917917;29;5263;-66
2022/07/10 02:16:41;;;;;;;;;;;;;;;22.05;52.37;101484.13;4917177;29;5795;-66
2022/07/10 02:19:07;;;;;;;;;;;;;;;22.06;52.33;101484.84;4918522;29;4143;-67
2022/07/10 02:21:34;;;;;;;;;;;;;;;22.05;52.59;101483.38;4919930;29;5284;-67
2022/07/10 02:24:00;;;;;;;;;;;;;;;22.04;52.26;101479.75;4917668;29;4240;-67
2022/07/10 02:26:27;;;;;;;;;;;;;;;22.02;52.44;101485.41;4920145;29;4200;-67
2022/07/10 02:28:53;;;;;;;;;;;;;;;22.04;52.40;101476.13;4919130;29;5316;-67
2022/07/10 02:31:19;;;;;;;;;;;;;;;22.03;52.42;101480.38;4916974;29;4209;-66
2022/07/10 02:33:46;;;;;;;;;;;;;;;22.02;52.41;101479.66;4915188;29;5488;-66
2022/07/10 02:36:12;;;;;;;;;;;;;;;22.03;52.34;101486.91;4917624;29;4273;-67
2022/07/10 02:38:39;;;;;;;;;;;;;;;22.03;52.40;101478.25;4915729;29;4241;-67
2022/07/10 02:41:06;;;;;;;;;;;;;;;22.02;52.51;101476.75;4917410;29;4325;-67
2022/07/10 02:43:32;;;;;;;;;;;;;;;22.02;52.44;101476.75;4915754;29;4339;-67
2022/07/10 02:46:04;;;;;;;;;;;;;;;22.02;52.38;101482.53;4916386;29;5209;-67
2022/07/10 02:48:30;;;;;;;;;;;;;;;22.02;52.61;101485.41;4914913;29;4246;-67
2022/07/10 02:50:57;;;;;;;;;;;;;;;22.03;52.47;101480.38;4917038;29;4260;-67
2022/07/10 02:53:23;;;;;;;;;;;;;;;22.02;52.45;101485.41;4918118;29;4258;-66
2022/07/10 02:55:50;;;;;;;;;;;;;;;22.03;52.44;101474.63;4915679;29;5470;-67
2022/07/10 02:58:17;;;;;;;;;;;;;;;22.01;52.25;101472.38;4917265;29;4219;-66
2022/07/10 03:00:44;;;;;;;;;;;;;;;22.02;52.14;101473.13;4913704;29;5308;-67
2022/07/10 03:03:10;;;;;;;;;;;;;;;22.00;52.41;101473.78;4918302;29;4291;-67
2022/07/10 03:05:36;;;;;;;;;;;;;;;22.00;52.71;101461.50;4915897;29;4369;-67
2022/07/10 03:08:03;;;;;;;;;;;;;;;22.01;52.46;101475.25;4913362;29;5507;-67
2022/07/10 03:10:29;;;;;;;;;;;;;;;22.00;52.17;101470.91;4910644;29;4214;-67
2022/07/10 03:12:56;;;;;;;;;;;;;;;22.00;52.23;101476.66;4917095;29;4367;-67
2022/07/10 03:15:22;;;;;;;;;;;;;;;22.00;52.40;101470.16;4911780;29;4108;-67
2022/07/10 03:17:49;;;;;;;;;;;;;;;21.99;52.30;101475.19;4914147;29;4207;-67
2022/07/10 03:20:15;;;;;;;;;;;;;;;21.99;52.40;101474.41;4914858;29;5272;-67
2022/07/10 03:22:42;;;;;;;;;;;;;;;21.98;52.41;101465.03;4910807;29;5316;-67
2022/07/10 03:25:08;;;;;;;;;;;;;;;21.97;52.35;101460.66;4914209;29;4143;-67
2022/07/10 03:27:34;;;;;;;;;;;;;;;21.98;52.35;101462.13;4916424;29;4227;-67
2022/07/10 03:30:01;;;;;;;;;;;;;;;21.97;52.21;101454.91;4914604;29;4303;-67
2022/07/10 03:32:27;;;;;;;;;;;;;;;21.98;52.25;101467.16;4918458;29;4268;-67
2022/07/10 03:34:54;;;;;;;;;;;;;;;21.98;52.38;101470.78;4914724;29;5424;-67
2022/07/10 03:37:20;;;;;;;;;;;;;;;21.98;52.40;101470.06;4914384;29;4258;-67
2022/07/10 03:39:46;;;;;;;;;;;;;;;21.96;52.42;101464.91;4916976;29;4211;-67
2022/07/10 03:42:13;;;;;;;;;;;;;;;21.95;52.27;101469.22;4916902;29;5024;-67
2022/07/10 03:44:39;;;;;;;;;;;;;;;21.97;52.53;101466.44;4914786;29;4411;-64
2022/07/10 03:47:06;;;;;;;;;;;;;;;21.97;52.17;101463.53;4914280;29;4349;-67
2022/07/10 03:49:32;;;;;;;;;;;;;;;21.95;52.15;101469.94;4916171;29;5230;-67
2022/07/10 03:51:59;;;;;;;;;;;;;;;21.96;52.22;101459.91;4915866;29;4224;-67
2022/07/10 03:54:26;;;;;;;;;;;;;;;21.95;52.24;101463.44;4918074;29;4270;-67
2022/07/10 03:59:38;;;;;;;;;;;;;;;21.95;52.20;101454.78;4918153;29;4181;-67
2022/07/10 04:02:04;;;;;;;;;;;;;;;21.95;52.08;101457.69;4913950;29;4260;-67
2022/07/10 04:04:31;;;;;;;;;;;;;;;21.94;52.30;101444.63;4915107;29;5339;-67
2022/07/10 04:06:57;;;;;;;;;;;;;;;21.94;52.16;101456.16;4914092;29;5307;-67
2022/07/10 04:09:24;;;;;;;;;;;;;;;21.96;52.24;101459.16;4913527;29;4419;-67
2022/07/10 04:11:50;;;;;;;;;;;;;;;21.94;52.17;101454.06;4915396;29;4313;-66
2022/07/10 04:14:16;;;;;;;;;;;;;;;21.95;52.21;101469.22;4914685;29;4370;-67
2022/07/10 04:16:43;;;;;;;;;;;;;;;21.93;52.16;101461.19;4916471;29;6432;-67
2022/07/10 04:19:09;;;;;;;;;;;;;;;21.94;52.38;101450.41;4916874;29;4103;-67
2022/07/10 04:21:36;;;;;;;;;;;;;;;21.94;52.38;101456.94;4915095;29;4692;-67
2022/07/10 04:24:03;;;;;;;;;;;;;;;21.94;51.95;101447.50;4915718;29;4353;-67
2022/07/10 04:26:32;;;;;;;;;;;;;;;21.93;52.29;101454.69;4919922;29;4344;-67
2022/07/10 04:28:58;;;;;;;;;;;;;;;21.94;52.43;101444.63;4916000;29;4310;-67
2022/07/10 04:31:25;;;;;;;;;;;;;;;21.93;52.03;101460.44;4919595;29;4274;-67
2022/07/10 04:33:51;;;;;;;;;;;;;;;21.93;52.29;101451.81;4917459;29;4373;-67
2022/07/10 04:36:18;;;;;;;;;;;;;;;21.91;52.33;101448.81;4917322;29;4200;-67
2022/07/10 04:38:44;;;;;;;;;;;;;;;21.92;51.96;101447.41;4919219;29;4183;-67
2022/07/10 04:41:10;;;;;;;;;;;;;;;21.92;51.93;101447.41;4921895;29;4246;-67
2022/07/10 04:43:37;;;;;;;;;;;;;;;21.92;52.36;101447.41;4920243;29;5412;-66
2022/07/10 04:46:03;;;;;;;;;;;;;;;21.93;51.93;101451.81;4918266;29;5220;-66
2022/07/10 04:48:30;;;;;;;;;;;;;;;21.91;52.12;101448.81;4914865;29;4315;-67
2022/07/10 04:50:57;;;;;;;;;;;;;;;21.91;52.12;101445.94;4916104;29;5090;-67
2022/07/10 04:53:24;;;;;;;;;;;;;;;21.91;52.27;101448.81;4916529;29;4213;-67
2022/07/10 04:55:50;;;;;;;;;;;;;;;21.91;52.20;101445.94;4919360;29;4285;-66
2022/07/10 04:58:16;;;;;;;;;;;;;;;21.91;52.16;101448.81;4918093;29;4191;-67
2022/07/10 05:00:43;;;;;;;;;;;;;;;21.91;52.11;101451.69;4917743;29;4516;-67
2022/07/10 05:03:09;;;;;;;;;;;;;;;21.90;51.96;101456.00;4916206;29;4574;-67
2022/07/10 05:05:36;;;;;;;;;;;;;;;21.90;52.12;101447.34;4913490;29;5493;-67
2022/07/10 05:08:02;;;;;;;;;;;;;;;21.90;52.31;101447.34;4916700;29;5572;-67
2022/07/10 05:10:28;;;;;;;;;;;;;;;21.90;52.09;101448.06;4917002;29;4325;-67
2022/07/10 05:12:55;;;;;;;;;;;;;;;21.90;52.12;101450.22;4916290;29;4649;-66
2022/07/10 05:15:22;;;;;;;;;;;;;;;21.90;52.28;101450.22;4919356;29;4419;-66
2022/07/10 05:17:48;;;;;;;;;;;;;;;21.90;52.08;101444.47;4917180;29;4239;-67
2022/07/10 05:20:15;;;;;;;;;;;;;;;21.91;52.22;101437.28;4916018;29;5426;-67
2022/07/10 05:22:41;;;;;;;;;;;;;;;21.90;52.07;101444.47;4918602;29;5303;-67
2022/07/10 05:25:07;;;;;;;;;;;;;;;21.89;52.05;101443.69;4919515;29;4416;-67
2022/07/10 05:27:34;;;;;;;;;;;;;;;21.89;52.20;101437.91;4915484;29;5580;-67
2022/07/10 05:30:00;;;;;;;;;;;;;;;21.89;52.12;101446.56;4914460;29;4355;-67
2022/07/10 05:32:27;;;;;;;;;;;;;;;21.89;52.13;101451.59;4917679;29;4093;-67
2022/07/10 05:34:53;;;;;;;;;;;;;;;21.89;52.04;101442.94;4915161;29;4212;-67
2022/07/10 05:37:19;;;;;;;;;;;;;;;21.89;52.08;101437.91;4918573;29;4328;-67
2022/07/10 05:39:46;;;;;;;;;;;;;;;21.88;52.05;101429.94;4919034;29;4657;-66
2022/07/10 05:42:12;;;;;;;;;;;;;;;21.87;52.14;101434.19;4916848;29;4103;-67
2022/07/10 05:44:38;;;;;;;;;;;;;;;21.85;51.99;101440.63;4914953;29;5571;-67
2022/07/10 05:47:06;;;;;;;;;;;;;;;21.87;52.00;101431.31;4914102;29;4108;-67
2022/07/10 05:49:33;;;;;;;;;;;;;;;21.86;52.06;101438.47;4916013;29;4231;-67
2022/07/10 05:51:59;;;;;;;;;;;;;;;21.85;52.05;101440.63;4918743;29;4610;-67
2022/07/10 05:54:25;;;;;;;;;;;;;;;21.86;51.95;101433.47;4919275;29;4280;-67
2022/07/10 05:56:52;;;;;;;;;;;;;;;21.88;52.03;101450.13;4918361;29;4193;-67
2022/07/10 05:59:18;;;;;;;;;;;;;;;21.85;51.87;101437.75;4920471;29;4365;-67
2022/07/10 06:01:44;;;;;;;;;;;;;;;21.86;52.23;101438.47;4910740;29;4272;-65
2022/07/10 06:04:11;;;;;;;;;;;;;;;21.87;51.87;101449.34;4916020;29;4224;-67
2022/07/10 06:06:38;;;;;;;;;;;;;;;21.85;52.08;101451.38;4913265;29;4127;-66
2022/07/10 06:09:04;;;;;;;;;;;;;;;21.86;52.10;101455.78;4917547;29;5920;-67
2022/07/10 06:11:31;;;;;;;;;;;;;;;21.86;51.96;101447.13;4915386;29;4200;-67
2022/07/10 06:13:57;;;;;;;;;;;;;;;21.86;52.04;101438.47;4917164;29;5357;-67
2022/07/10 06:16:23;;;;;;;;;;;;;;;21.86;52.04;101447.13;4917251;29;4413;-67
2022/07/10 06:18:50;;;;;;;;;;;;;;;21.86;52.01;101447.88;4918314;29;4237;-67
2022/07/10 06:21:21;;;;;;;;;;;;;;;21.84;52.16;101447.03;4916404;29;5313;-67
2022/07/10 06:23:47;;;;;;;;;;;;;;;21.84;51.87;101447.03;4916234;29;4217;-67
2022/07/10 06:26:14;;;;;;;;;;;;;;;21.84;52.19;101449.91;4916947;29;4221;-67
2022/07/10 06:28:46;;;;;;;;;;;;;;;21.84;52.25;101452.78;4918575;29;5358;-66
2022/07/10 06:31:12;;;;;;;;;;;;;;;21.86;51.95;101450.00;4915815;29;6163;-67
2022/07/10 06:33:39;;;;;;;;;;;;;;;21.87;52.10;101445.72;4918408;29;4263;-65
2022/07/10 06:36:05;;;;;;;;;;;;;;;21.82;51.45;101438.28;4916358;29;4237;-66
2022/07/10 06:38:31;;;;;;;;;;;;;;;21.84;51.58;101435.50;4915353;29;4305;-66
2022/07/10 06:40:58;;;;;;;;;;;;;;;21.85;51.46;101439.84;4915223;29;4381;-65
2022/07/10 06:43:24;;;;;;;;;;;;;;;21.87;51.71;101445.72;4913936;29;4126;-67
2022/07/10 06:45:51;;;;;;;;;;;;;;;21.87;51.82;101439.97;4901338;29;4189;-66
2022/07/10 06:48:18;;;;;;;;;;;;;;;21.85;51.86;101451.38;4917465;29;4234;-66
2022/07/10 06:50:45;;;;;;;;;;;;;;;21.87;51.86;101454.38;4915372;29;5515;-66
2022/07/10 06:53:11;;;;;;;;;;;;;;;21.85;52.04;101451.38;4916094;29;5554;-66
2022/07/10 06:55:38;;;;;;;;;;;;;;;21.85;51.92;101451.38;4913554;29;4010;-65
2022/07/10 06:58:04;;;;;;;;;;;;;;;21.85;51.87;101465.81;4917338;29;4277;-65
2022/07/10 07:00:30;;;;;;;;;;;;;;;21.85;51.81;101454.28;4917025;29;4136;-65
2022/07/10 07:02:57;;;;;;;;;;;;;;;21.84;52.07;101464.31;4919568;29;4365;-65
2022/07/10 07:05:23;;;;;;;;;;;;;;;21.84;52.22;101452.78;4917325;29;4281;-65
2022/07/10 07:07:50;;;;;;;;;;;;;;;21.84;51.99;101447.03;4918952;29;4076;-65
2022/07/10 07:10:16;;;;;;;;;;;;;;;21.84;52.20;101447.75;4919732;29;4276;-65
2022/07/10 07:12:43;;;;;;;;;;;;;;;21.84;52.14;101441.25;4915845;29;4569;-66
2022/07/10 07:15:09;;;;;;;;;;;;;;;21.85;52.04;101448.50;4915714;29;4090;-66
2022/07/10 07:17:56;;;;;;;;;;;;;;;21.84;52.28;101435.50;4919030;29;4237;-66
2022/07/10 07:23:12;;;;;;;;;;;;;;;21.84;51.93;101435.50;4917572;29;4192;-66
2022/07/10 07:25:41;;;;;;;;;;;;;;;21.85;52.02;101413.91;4913187;29;4394;-66
2022/07/10 07:28:08;;;;;;;;;;;;;;;21.86;52.25;101426.94;4915419;29;4048;-66
2022/07/10 07:30:35;;;;;;;;;;;;;;;21.85;51.98;101419.69;4918316;29;4124;-66
2022/07/10 07:33:01;;;;;;;;;;;;;;;21.84;52.03;101418.19;4911659;29;4151;-66
2022/07/10 07:35:28;;;;;;;;;;;;;;;21.87;51.80;101425.53;4913929;29;4339;-66
2022/07/10 07:37:54;;;;;;;;;;;;;;;21.84;51.93;101426.84;4914182;29;4206;-66
2022/07/10 07:40:22;;;;;;;;;;;;;;;21.83;52.01;101431.88;4913948;29;4314;-66
2022/07/10 07:42:53;;;;;;;;;;;;;;;21.83;51.92;101436.88;4918805;29;4227;-66
2022/07/10 07:45:19;;;;;;;;;;;;;;;21.88;52.00;101442.22;4920444;29;4131;-66
2022/07/10 07:47:46;;;;;;;;;;;;;;;21.91;51.78;101445.94;4914897;29;4578;-66
2022/07/10 07:50:13;;;;;;;;;;;;;;;21.85;51.88;101448.50;4918073;29;4086;-66
2022/07/10 07:52:40;;;;;;;;;;;;;;;21.83;51.67;101451.28;4916042;29;5427;-65
2022/07/10 07:55:06;;;;;;;;;;;;;;;21.83;51.90;101451.28;4918186;29;5502;-66
2022/07/10 07:57:32;;;;;;;;;;;;;;;21.83;52.09;101445.53;4917696;29;4221;-66
2022/07/10 07:59:59;;;;;;;;;;;;;;;21.83;51.94;101448.41;4917617;29;4350;-66
2022/07/10 08:02:25;;;;;;;;;;;;;;;21.83;51.98;101448.41;4920777;29;5383;-66
2022/07/10 08:04:52;;;;;;;;;;;;;;;21.82;52.10;101444.03;4919030;29;4386;-66
2022/07/10 08:07:18;;;;;;;;;;;;;;;21.82;52.01;101447.66;4914889;29;5351;-65
2022/07/10 08:09:44;;;;;;;;;;;;;;;21.82;51.85;101449.81;4919389;29;4388;-64
2022/07/10 08:12:11;;;;;;;;;;;;;;;21.82;51.93;101432.50;4918583;29;4098;-65
2022/07/10 08:14:37;;;;;;;;;;;;;;;21.83;51.93;101457.06;4921107;29;4272;-66
2022/07/10 08:17:04;;;;;;;;;;;;;;;21.83;51.89;101434.00;4917732;29;4018;-66
2022/07/10 08:19:30;;;;;;;;;;;;;;;21.82;51.95;101447.66;4915571;29;5413;-66
2022/07/10 08:21:57;;;;;;;;;;;;;;;21.82;51.79;101449.81;4919521;29;4515;-66
2022/07/10 08:24:23;;;;;;;;;;;;;;;21.82;51.82;101444.03;4918829;29;4301;-66
2022/07/10 08:26:50;;;;;;;;;;;;;;;21.85;52.10;101442.75;4912741;29;5298;-66
2022/07/10 08:29:17;;;;;;;;;;;;;;;21.85;51.59;101442.75;4916901;29;4195;-62
2022/07/10 08:31:43;;;;;;;;;;;;;;;21.76;48.17;101453.13;4907892;29;5345;-66
2022/07/10 08:34:09;;;;;;;;;;;;;;;21.60;48.82;101450.19;4919776;29;4358;-64
2022/07/10 08:36:36;;;;;;;;;;;;;;;21.68;49.27;101436.16;4915444;29;4364;-63
2022/07/10 08:39:09;;;;;;;;;;;;;;;21.72;49.64;101441.41;4921170;29;4409;-64
2022/07/10 08:41:36;;;;;;;;;;;;;;;21.75;49.42;101452.38;4922103;29;4263;-65
2022/07/10 08:44:02;;;;;;;;;;;;;;;21.78;49.50;101455.38;4914322;29;4262;-64
2022/07/10 08:46:28;;;;;;;;;;;;;;;21.78;49.48;101443.84;4918213;29;4217;-64
2022/07/10 08:48:55;;;;;;;;;;;;;;;21.79;49.75;101448.22;4914643;29;4253;-65
2022/07/10 08:51:30;;;;;;;;;;;;;;;21.80;49.36;101449.69;4901620;29;4285;-64
2022/07/10 08:53:57;;;;;;;;;;;;;;;21.79;49.34;101445.34;4898697;29;4377;-65
2022/07/10 08:56:23;;;;;;;;;;;;;;;21.79;49.17;101440.31;4912587;29;4242;-64
2022/07/10 08:58:50;;;;;;;;;;;;;;;21.79;49.02;101439.56;4915751;29;4318;-66
2022/07/10 09:01:22;;;;;;;;;;;;;;;21.80;48.40;101447.56;4917185;29;4178;-65
2022/07/10 09:03:50;;;;;;;;;;;;;;;21.79;48.56;101459.75;4915983;29;4584;-63
2022/07/10 09:06:16;;;;;;;;;;;;;;;21.79;48.82;101456.88;4917115;29;4238;-60
2022/07/10 09:09:04;;;;;;;;;;;;;;;21.81;48.80;101448.31;4910186;29;4215;-63
2022/07/10 09:11:31;;;;;;;;;;;;;;;21.79;48.54;101445.34;4915900;29;4268;-63
2022/07/10 09:13:58;;;;;;;;;;;;;;;21.78;48.18;101458.25;4915694;29;4752;-64
2022/07/10 09:16:25;;;;;;;;;;;;;;;21.83;47.67;101445.53;4906623;29;4080;-65
2022/07/10 09:18:52;;;;;;;;;;;;;;;21.82;47.62;101450.56;4918487;29;4086;-66
2022/07/10 09:21:19;;;;;;;;;;;;;;;21.83;47.85;101451.28;4915433;29;5577;-65
2022/07/10 09:23:45;;;;;;;;;;;;;;;21.83;48.13;101428.22;4919912;29;4244;-66
2022/07/10 09:26:12;;;;;;;;;;;;;;;21.83;48.26;101446.28;4913830;29;4225;-65
2022/07/10 09:28:38;;;;;;;;;;;;;;;21.83;48.69;101445.53;4915801;29;4642;-65
2022/07/10 09:31:05;;;;;;;;;;;;;;;21.86;48.80;101441.38;4915417;29;4161;-65
2022/07/10 09:33:33;;;;;;;;;;;;;;;21.88;49.02;101453.75;4912906;29;5461;-64
2022/07/10 09:36:11;;;;;;;;;;;;;;;21.87;48.93;101460.16;4916010;29;5169;-65
2022/07/10 09:38:44;;;;;;;;;;;;;;;21.85;49.15;101436.97;4909353;29;4400;-65
2022/07/10 09:41:15;;;;;;;;;;;;;;;21.83;49.12;101431.09;4914638;29;5286;-65
2022/07/10 09:43:45;;;;;;;;;;;;;;;21.86;48.82;101438.47;4915969;29;4149;-65
2022/07/10 09:46:12;;;;;;;;;;;;;;;21.84;48.88;101429.72;4914120;29;4108;-66
2022/07/10 09:48:38;;;;;;;;;;;;;;;21.86;49.30;101432.72;4915591;29;4627;-66
2022/07/10 09:51:06;;;;;;;;;;;;;;;21.89;49.53;101437.19;4912184;29;4165;-66
2022/07/10 09:53:32;;;;;;;;;;;;;;;21.91;49.67;101445.94;4901966;29;4150;-66
2022/07/10 09:55:59;;;;;;;;;;;;;;;21.96;49.36;101444.72;4912267;29;4150;-66
2022/07/10 09:58:26;;;;;;;;;;;;;;;21.90;49.80;101453.09;4914572;29;4161;-65
2022/07/10 10:00:52;;;;;;;;;;;;;;;21.88;49.40;101447.97;4917632;29;4220;-65
2022/07/10 10:03:18;;;;;;;;;;;;;;;21.92;49.37;101447.41;4914536;29;4346;-66
2022/07/10 10:05:45;;;;;;;;;;;;;;;21.95;49.58;101457.69;4898379;29;4300;-65
2022/07/10 10:08:12;;;;;;;;;;;;;;;21.93;49.50;101451.81;4894386;29;5377;-65
2022/07/10 10:10:41;;;;;;;;;;;;;;;21.91;49.36;101457.47;4916644;29;4191;-67
2022/07/10 10:13:08;;;;;;;;;;;;;;;21.91;49.49;101449.56;4916481;29;4213;-66
2022/07/10 10:15:35;;;;;;;;;;;;;;;21.92;49.63;101438.75;4918735;29;5392;-65
2022/07/10 10:18:01;;;;;;;;;;;;;;;21.92;49.52;101447.41;4913645;29;4237;-65
2022/07/10 10:20:37;;;;;;;;;;;;;;;21.91;49.79;101457.47;4916277;29;4287;-66
2022/07/10 10:23:04;;;;;;;;;;;;;;;21.92;49.71;101458.94;4901797;29;4266;-64
2022/07/10 10:25:31;;;;;;;;;;;;;;;21.92;49.83;101459.72;4910729;29;5690;-68
2022/07/10 10:27:58;;;;;;;;;;;;;;;21.93;49.88;101454.69;4908950;29;4163;-70
2022/07/10 10:30:25;;;;;;;;;;;;;;;21.95;49.87;101467.06;4917897;29;4259;-64
2022/07/10 10:32:51;;;;;;;;;;;;;;;21.91;48.40;101458.22;4901172;29;4305;-69
2022/07/10 10:35:36;;;;;;;;;;;;;;;21.92;48.50;101458.94;4910119;29;4291;-67
2022/07/10 10:38:03;;;;;;;;;;;;;;;21.96;48.73;101453.38;4915351;29;5471;-61
2022/07/10 10:40:30;;;;;;;;;;;;;;;21.97;48.33;101460.66;4914804;29;4754;-70
2022/07/10 10:42:57;;;;;;;;;;;;;;;22.00;48.27;101458.63;4893978;29;4500;-68
2022/07/10 10:45:29;;;;;;;;;;;;;;;21.99;48.77;101469.41;4898043;29;4188;-62
2022/07/10 10:47:57;;;;;;;;;;;;;;;21.94;48.89;101451.16;4913926;29;5140;-71
2022/07/10 10:50:48;;;;;;;;;;;;;;;21.96;48.77;101464.91;4910005;29;4237;-71
2022/07/10 10:53:22;;;;;;;;;;;;;;;21.96;48.48;101459.16;4909033;29;4270;-72
2022/07/10 10:56:11;;;;;;;;;;;;;;;21.96;48.57;101447.63;4909467;29;4248;-71
2022/07/10 10:58:37;;;;;;;;;;;;;;;21.96;48.81;101448.34;4907570;29;4164;-71
2022/07/10 11:01:20;;;;;;;;;;;;;;;21.96;48.80;101464.91;4909453;29;6426;-71
2022/07/10 11:04:05;;;;;;;;;;;;;;;21.97;48.83;101466.44;4908418;29;4552;-72
2022/07/10 11:06:44;;;;;;;;;;;;;;;21.97;49.09;101460.66;4908613;29;5300;-71
2022/07/10 11:09:29;;;;;;;;;;;;;;;21.97;49.30;101454.91;4904929;29;4540;-72
2022/07/10 11:12:02;;;;;;;;;;;;;;;21.97;49.23;101460.66;4908201;29;4244;-72
2022/07/10 11:14:28;;;;;;;;;;;;;;;21.97;49.23;101460.66;4900586;29;4253;-72
2022/07/10 11:16:55;;;;;;;;;;;;;;;21.98;49.17;101467.16;4904411;29;5254;-72
2022/07/10 11:19:22;;;;;;;;;;;;;;;21.98;49.28;101461.41;4909295;29;4101;-72
2022/07/10 11:21:49;;;;;;;;;;;;;;;21.98;49.33;101467.91;4902952;29;5392;-72
2022/07/10 11:24:24;;;;;;;;;;;;;;;21.99;49.22;101462.88;4907595;29;4098;-72
2022/07/10 11:27:09;;;;;;;;;;;;;;;21.98;49.54;101452.75;4902579;29;4271;-72
2022/07/10 11:29:36;;;;;;;;;;;;;;;21.99;49.40;101452.13;4902545;29;4264;-72
2022/07/10 11:32:02;;;;;;;;;;;;;;;21.98;49.63;101456.38;4890481;29;4256;-72
2022/07/10 11:34:36;;;;;;;;;;;;;;;21.99;49.49;101457.88;4889041;29;4153;-71
2022/07/10 11:37:27;;;;;;;;;;;;;;;22.00;49.46;101458.63;4909389;29;4644;-72
2022/07/10 11:40:07;;;;;;;;;;;;;;;22.00;49.52;101459.38;4913008;29;4544;-72
2022/07/10 11:42:52;;;;;;;;;;;;;;;22.00;49.77;101453.59;4914140;29;4205;-72
2022/07/10 11:45:25;;;;;;;;;;;;;;;22.00;49.62;101447.09;4904405;29;4730;-72
2022/07/10 11:47:51;;;;;;;;;;;;;;;21.98;49.57;101453.50;4909830;29;4176;-72
2022/07/10 11:50:18;;;;;;;;;;;;;;;22.01;49.81;101449.31;4913007;29;5431;-72
2022/07/10 11:52:45;;;;;;;;;;;;;;;22.00;49.76;101453.59;4911136;29;4264;-71
2022/07/10 11:55:18;;;;;;;;;;;;;;;22.02;49.73;101458.72;4910120;29;4409;-72
2022/07/10 11:57:48;;;;;;;;;;;;;;;22.02;49.65;101456.56;4911414;29;5286;-71
2022/07/10 12:00:24;;;;;;;;;;;;;;;22.03;49.91;101458.06;4911812;29;4329;-72
2022/07/10 12:02:51;;;;;;;;;;;;;;;22.03;49.69;101463.81;4907223;29;4184;-73
2022/07/10 12:05:30;;;;;;;;;;;;;;;22.04;49.59;101453.78;4910992;29;4263;-72
2022/07/10 12:07:56;;;;;;;;;;;;;;;22.05;49.97;101455.28;4909233;29;4260;-72
2022/07/10 12:10:26;;;;;;;;;;;;;;;22.05;49.83;101455.28;4896455;29;5170;-72
2022/07/10 12:13:08;;;;;;;;;;;;;;;22.05;49.96;101466.81;4909384;29;5417;-72
2022/07/10 12:15:36;;;;;;;;;;;;;;;22.06;49.67;101462.56;4917313;29;4243;-72
2022/07/10 12:18:03;;;;;;;;;;;;;;;22.05;50.03;101472.59;4919547;29;4192;-71
2022/07/10 12:20:30;;;;;;;;;;;;;;;22.06;49.92;101458.91;4921052;29;4222;-71
2022/07/10 12:22:56;;;;;;;;;;;;;;;22.06;49.90;101456.00;4918907;29;4300;-71
2022/07/10 12:25:23;;;;;;;;;;;;;;;22.07;49.85;101460.41;4904295;29;4131;-71
2022/07/10 12:27:49;;;;;;;;;;;;;;;22.07;50.26;101446.72;4917988;29;4069;-72
2022/07/10 12:30:18;;;;;;;;;;;;;;;22.08;49.91;101454.00;4904028;29;4501;-70
2022/07/10 12:32:45;;;;;;;;;;;;;;;22.07;49.92;101457.53;4916645;29;4299;-72
2022/07/10 12:35:14;;;;;;;;;;;;;;;22.09;50.08;101448.97;4900722;29;3999;-72
2022/07/10 12:37:50;;;;;;;;;;;;;;;22.09;50.07;101455.47;4916879;29;4185;-71
2022/07/10 12:40:29;;;;;;;;;;;;;;;22.09;49.91;101455.47;4899818;29;4315;-70
2022/07/10 12:43:06;;;;;;;;;;;;;;;22.08;49.68;101454.00;4916275;29;4254;-72
2022/07/10 12:45:32;;;;;;;;;;;;;;;22.12;49.72;101459.19;4917166;29;5232;-64
2022/07/10 12:47:59;;;;;;;;;;;;;;;22.11;49.72;101461.34;4899842;29;4380;-75
2022/07/10 12:50:26;;;;;;;;;;;;;;;22.13;49.67;101454.94;4903538;29;4269;-68
2022/07/10 12:53:08;;;;;;;;;;;;;;;22.20;49.58;101464.63;4917757;29;4209;-50
2022/07/10 12:55:35;;;;;;;;;;;;;;;22.17;48.51;101453.00;4920963;29;4025;-73
2022/07/10 12:58:05;;;;;;;;;;;;;;;22.16;48.76;101454.38;4919610;29;4146;-70
2022/07/10 13:00:33;;;;;;;;;;;;;;;22.16;48.87;101460.16;4916447;29;4249;-69